Plainview, Virginia
Current Conditions -  °F | °C
As of 10:15 PM on Monday 26 Jan 2015 (Local Time) from KFYJ Reporting Station
Overcast Overcast  
Wind Chill: 28°   Ceiling: 800
Heat Index: 36°   Visibility: 7mi
Dew Point: 32°   Wind: 12mph
Humidity: 86%   Direction: 340°NNW
Pressure: 29.69"   Gusts: NA
Location:  37.5357°N, 76.7136°W
Report Text: KFYJ 270315Z AUTO 34010KT 300V360 7SM OVC008 02/00 A2969 RMK AO2 T00210000
Loading
Personal Weather Stations






























Interactive Weather Map New forecast layout! Learn more

10-Day Weather Forecast

Advertisements
Track Severe Weather on mobile